Time;durP1;ratioP1;P1;durP2;ratioP2;P2;SDS_P1;SDS_P2;PMS_P1;PMS_P2;Temp;Humidity;BMP_temperature;BMP_pressure;BME280_temperature;BME280_humidity;BME280_pressure;Samples;Min_cycle;Max_cycle;Signal;HPM_P1;HPM_P2
2023/04/03 00:00:59;;;;;;;13.85;8.85;;;;;;;;;;4970273;28;20074;-71
2023/04/03 00:03:25;;;;;;;11.90;7.82;;;;;;;;;;4976952;28;20050;-72
2023/04/03 00:05:51;;;;;;;15.48;10.20;;;;;;;;;;4976499;28;20054;-73
2023/04/03 00:08:16;;;;;;;14.32;9.35;;;;;;;;;;4979253;28;20038;-72
2023/04/03 00:10:42;;;;;;;12.23;7.95;;;;;;;;;;4980756;28;20423;-71
2023/04/03 00:13:08;;;;;;;12.10;7.03;;;;;;;;;;4979593;28;20088;-73
2023/04/03 00:15:35;;;;;;;15.70;10.38;;;;;;;;;;4970032;28;20495;-73
2023/04/03 00:18:01;;;;;;;13.90;10.07;;;;;;;;;;4980553;28;20714;-71
2023/04/03 00:20:27;;;;;;;14.95;9.43;;;;;;;;;;4981046;28;20042;-73
2023/04/03 00:22:53;;;;;;;13.75;9.10;;;;;;;;;;4974530;28;20055;-72
2023/04/03 00:25:19;;;;;;;14.18;9.35;;;;;;;;;;4978678;28;20045;-73
2023/04/03 00:27:44;;;;;;;13.32;9.13;;;;;;;;;;4980641;28;20050;-72
2023/04/03 00:30:13;;;;;;;14.65;9.55;;;;;;;;;;4995459;28;20089;-72
2023/04/03 00:32:38;;;;;;;15.13;9.48;;;;;;;;;;4974037;28;20140;-71
2023/04/03 00:35:04;;;;;;;13.27;9.32;;;;;;;;;;4994866;28;20559;-72
2023/04/03 00:37:30;;;;;;;11.38;8.07;;;;;;;;;;4967389;28;20038;-72
2023/04/03 00:39:56;;;;;;;11.02;8.43;;;;;;;;;;4995065;28;20046;-70
2023/04/03 00:42:22;;;;;;;13.88;8.20;;;;;;;;;;4987325;28;20056;-70
2023/04/03 00:44:47;;;;;;;11.18;7.57;;;;;;;;;;4993793;28;20085;-72
2023/04/03 00:47:16;;;;;;;11.38;7.78;;;;;;;;;;4971631;28;20145;-71
2023/04/03 00:49:42;;;;;;;11.40;8.25;;;;;;;;;;4990076;28;20053;-70
2023/04/03 00:52:13;;;;;;;10.05;7.35;;;;;;;;;;4980069;28;20054;-71
2023/04/03 00:54:40;;;;;;;10.40;7.28;;;;;;;;;;4971880;28;20061;-71
2023/04/03 00:57:07;;;;;;;10.57;7.30;;;;;;;;;;4979288;28;20046;-70
2023/04/03 00:59:38;;;;;;;10.00;6.95;;;;;;;;;;4971700;28;20054;-71
2023/04/03 01:02:04;;;;;;;9.10;6.63;;;;;;;;;;4988823;28;20128;-72
2023/04/03 01:04:39;;;;;;;8.63;6.50;;;;;;;;;;4994938;28;20082;-72
2023/04/03 01:07:14;;;;;;;8.93;6.40;;;;;;;;;;4991586;28;20061;-71
2023/04/03 01:09:41;;;;;;;9.38;6.43;;;;;;;;;;4990335;28;20460;-69
2023/04/03 01:12:21;;;;;;;14.65;7.32;;;;;;;;;;4992995;28;20077;-70
2023/04/03 01:14:52;;;;;;;10.63;6.70;;;;;;;;;;4976870;28;20129;-71
2023/04/03 01:17:39;;;;;;;9.35;7.85;;;;;;;;;;4965363;28;20050;-71
2023/04/03 01:20:11;;;;;;;9.60;7.13;;;;;;;;;;4974461;28;20034;-70
2023/04/03 01:23:09;;;;;;;9.40;6.97;;;;;;;;;;4966534;28;20051;-70
2023/04/03 01:25:37;;;;;;;10.07;7.10;;;;;;;;;;4939692;28;20066;-71
2023/04/03 01:28:05;;;;;;;8.63;6.60;;;;;;;;;;5014028;28;20062;-71
2023/04/03 01:30:35;;;;;;;9.18;6.85;;;;;;;;;;4975934;28;20038;-68
2023/04/03 01:33:01;;;;;;;12.15;7.93;;;;;;;;;;4971537;28;20050;-70
2023/04/03 01:35:26;;;;;;;10.90;7.05;;;;;;;;;;4973921;28;20080;-71
2023/04/03 01:37:52;;;;;;;13.13;7.43;;;;;;;;;;4990275;28;20169;-71
2023/04/03 01:40:18;;;;;;;9.57;6.70;;;;;;;;;;4998511;28;20060;-71
2023/04/03 01:42:45;;;;;;;9.75;7.13;;;;;;;;;;4972985;28;20455;-71
2023/04/03 01:45:11;;;;;;;9.90;6.95;;;;;;;;;;4996221;28;20042;-72
2023/04/03 01:47:37;;;;;;;8.70;6.50;;;;;;;;;;4970695;28;20061;-71
2023/04/03 01:50:03;;;;;;;9.95;6.97;;;;;;;;;;4988144;28;20081;-70
2023/04/03 01:52:31;;;;;;;9.35;6.70;;;;;;;;;;4997671;28;20506;-70
2023/04/03 01:54:56;;;;;;;10.70;7.05;;;;;;;;;;4979782;28;20693;-71
2023/04/03 01:57:22;;;;;;;8.98;6.75;;;;;;;;;;4974607;28;20430;-71
2023/04/03 01:59:48;;;;;;;9.43;6.15;;;;;;;;;;4995414;28;20077;-71
2023/04/03 02:02:14;;;;;;;8.35;6.57;;;;;;;;;;4989615;28;20042;-70
2023/04/03 02:04:40;;;;;;;9.05;6.90;;;;;;;;;;4996661;28;20057;-72
2023/04/03 02:07:06;;;;;;;11.23;6.40;;;;;;;;;;4996395;28;20050;-72
2023/04/03 02:09:32;;;;;;;8.10;6.20;;;;;;;;;;4990408;28;20046;-71
2023/04/03 02:11:57;;;;;;;9.70;6.72;;;;;;;;;;4989600;28;20046;-72
2023/04/03 02:14:23;;;;;;;11.23;6.65;;;;;;;;;;4981732;28;20042;-71
2023/04/03 02:16:49;;;;;;;8.02;6.72;;;;;;;;;;4985465;28;20484;-72
2023/04/03 02:19:15;;;;;;;9.23;5.90;;;;;;;;;;4967503;28;20065;-72
2023/04/03 02:21:41;;;;;;;7.45;5.85;;;;;;;;;;4978460;28;20061;-72
2023/04/03 02:24:07;;;;;;;7.30;5.95;;;;;;;;;;4993507;28;20054;-72
2023/04/03 02:26:33;;;;;;;8.52;5.50;;;;;;;;;;4982949;28;20050;-72
2023/04/03 02:28:59;;;;;;;6.78;5.68;;;;;;;;;;4989924;28;20043;-71
2023/04/03 02:31:25;;;;;;;8.30;6.25;;;;;;;;;;4992711;28;20050;-70
2023/04/03 02:33:51;;;;;;;8.68;5.43;;;;;;;;;;4992782;28;20042;-70
2023/04/03 02:36:17;;;;;;;7.47;5.53;;;;;;;;;;4995730;28;20523;-71
2023/04/03 02:38:48;;;;;;;7.22;5.00;;;;;;;;;;4989326;28;20385;-70
2023/04/03 02:41:13;;;;;;;6.47;5.13;;;;;;;;;;4988521;28;20602;-72
2023/04/03 02:43:39;;;;;;;6.50;5.40;;;;;;;;;;4996349;28;20077;-72
2023/04/03 02:46:05;;;;;;;5.95;4.93;;;;;;;;;;4989110;28;20050;-70
2023/04/03 02:48:31;;;;;;;5.53;4.55;;;;;;;;;;4983010;28;20038;-72
2023/04/03 02:50:57;;;;;;;6.93;5.40;;;;;;;;;;4983241;28;20061;-73
2023/04/03 02:53:23;;;;;;;6.78;5.70;;;;;;;;;;4972947;28;20408;-70
2023/04/03 02:55:49;;;;;;;6.75;5.65;;;;;;;;;;4996614;28;20137;-70
2023/04/03 02:58:15;;;;;;;8.90;5.50;;;;;;;;;;4996708;28;20161;-71
2023/04/03 03:00:40;;;;;;;6.95;5.22;;;;;;;;;;4975716;28;20898;-71
2023/04/03 03:03:06;;;;;;;7.55;5.40;;;;;;;;;;4988487;28;20142;-73
2023/04/03 03:05:32;;;;;;;7.03;5.75;;;;;;;;;;4981776;28;20096;-72
2023/04/03 03:07:57;;;;;;;5.80;4.97;;;;;;;;;;4980619;28;20058;-71
2023/04/03 03:10:23;;;;;;;8.02;5.70;;;;;;;;;;4981641;28;20050;-71
2023/04/03 03:12:49;;;;;;;8.27;5.70;;;;;;;;;;4995267;28;20050;-71
2023/04/03 03:15:15;;;;;;;7.93;6.15;;;;;;;;;;4992613;28;20050;-72
2023/04/03 03:17:41;;;;;;;9.20;5.57;;;;;;;;;;4980455;28;20052;-71
2023/04/03 03:20:07;;;;;;;8.45;6.13;;;;;;;;;;4973915;28;20058;-71
2023/04/03 03:22:34;;;;;;;9.00;6.30;;;;;;;;;;4996021;28;20129;-71
2023/04/03 03:25:00;;;;;;;7.25;5.82;;;;;;;;;;4974420;28;20061;-72
2023/04/03 03:27:26;;;;;;;8.02;5.75;;;;;;;;;;4989297;28;20054;-71
2023/04/03 03:29:52;;;;;;;10.15;6.13;;;;;;;;;;4979924;28;20038;-71
2023/04/03 03:32:17;;;;;;;9.45;5.47;;;;;;;;;;4969254;28;20042;-72
2023/04/03 03:34:43;;;;;;;6.03;5.00;;;;;;;;;;4975234;28;20050;-72
2023/04/03 03:37:08;;;;;;;6.63;5.10;;;;;;;;;;4973143;28;20446;-72
2023/04/03 03:39:34;;;;;;;7.78;5.40;;;;;;;;;;4995932;28;20038;-70
2023/04/03 03:41:59;;;;;;;6.07;5.47;;;;;;;;;;4994047;28;20395;-70
2023/04/03 03:44:25;;;;;;;10.27;5.57;;;;;;;;;;4991877;28;20106;-70
2023/04/03 03:46:52;;;;;;;7.13;5.60;;;;;;;;;;4979815;28;20507;-70
2023/04/03 03:49:18;;;;;;;6.70;5.38;;;;;;;;;;4966726;28;20046;-71
2023/04/03 03:51:43;;;;;;;6.18;5.30;;;;;;;;;;4995695;28;20053;-71
2023/04/03 03:54:09;;;;;;;7.97;5.25;;;;;;;;;;4979843;28;20038;-70
2023/04/03 03:56:35;;;;;;;9.68;5.35;;;;;;;;;;4985580;28;20554;-70
2023/04/03 03:59:01;;;;;;;6.40;5.47;;;;;;;;;;4961484;28;20078;-71
2023/04/03 04:01:27;;;;;;;7.22;5.50;;;;;;;;;;4987247;28;20042;-70
2023/04/03 04:03:53;;;;;;;7.82;5.95;;;;;;;;;;4982364;28;20060;-70
2023/04/03 04:06:22;;;;;;;5.90;5.00;;;;;;;;;;4991688;28;20050;-71
2023/04/03 04:08:49;;;;;;;6.47;5.25;;;;;;;;;;4989661;28;20042;-70
2023/04/03 04:11:15;;;;;;;6.60;4.97;;;;;;;;;;4980003;28;20061;-70
2023/04/03 04:13:42;;;;;;;6.07;5.13;;;;;;;;;;4995242;28;20050;-71
2023/04/03 04:16:09;;;;;;;6.63;5.32;;;;;;;;;;4995232;28;20093;-71
2023/04/03 04:18:35;;;;;;;6.82;5.53;;;;;;;;;;4995587;28;20439;-71
2023/04/03 04:21:00;;;;;;;7.78;5.60;;;;;;;;;;4978060;28;20061;-72
2023/04/03 04:23:27;;;;;;;7.07;5.28;;;;;;;;;;4987394;28;20054;-71
2023/04/03 04:25:52;;;;;;;7.07;4.97;;;;;;;;;;4990286;28;20507;-71
2023/04/03 04:28:19;;;;;;;6.03;4.75;;;;;;;;;;4989652;28;20053;-71
2023/04/03 04:30:47;;;;;;;6.55;5.10;;;;;;;;;;4990481;28;20451;-71
2023/04/03 04:33:14;;;;;;;7.75;5.05;;;;;;;;;;4994180;28;20129;-71
2023/04/03 04:35:43;;;;;;;6.15;4.90;;;;;;;;;;4994722;28;20047;-71
2023/04/03 04:38:09;;;;;;;6.90;4.47;;;;;;;;;;4995314;28;20552;-70
2023/04/03 04:40:35;;;;;;;6.05;4.80;;;;;;;;;;4994277;28;20046;-71
2023/04/03 04:43:01;;;;;;;5.65;4.72;;;;;;;;;;4987720;28;20590;-71
2023/04/03 04:45:26;;;;;;;8.38;4.82;;;;;;;;;;4993971;28;20097;-72
2023/04/03 04:47:55;;;;;;;6.13;4.43;;;;;;;;;;4987393;28;20140;-71
2023/04/03 04:50:23;;;;;;;6.45;5.00;;;;;;;;;;4987188;28;20411;-72
2023/04/03 04:52:49;;;;;;;4.88;4.18;;;;;;;;;;4984327;28;20135;-71
2023/04/03 04:55:14;;;;;;;5.60;4.85;;;;;;;;;;4981679;28;20054;-72
2023/04/03 04:57:40;;;;;;;7.97;5.20;;;;;;;;;;4982699;28;20054;-72
2023/04/03 05:00:07;;;;;;;9.73;5.93;;;;;;;;;;4992316;28;20038;-73
2023/04/03 05:02:32;;;;;;;6.88;5.40;;;;;;;;;;4986107;28;20038;-72
2023/04/03 05:04:58;;;;;;;7.97;5.30;;;;;;;;;;4977430;28;20527;-73
2023/04/03 05:07:27;;;;;;;9.20;5.28;;;;;;;;;;4988641;28;20062;-73
2023/04/03 05:09:53;;;;;;;5.25;4.10;;;;;;;;;;4992741;28;20042;-73
2023/04/03 05:12:19;;;;;;;5.97;5.05;;;;;;;;;;4988275;28;20047;-73
2023/04/03 05:14:51;;;;;;;;;;;;;;;;;;4980704;28;20168;-72
2023/04/03 05:17:17;;;;;;;5.68;4.53;;;;;;;;;;4985648;28;20426;-72
2023/04/03 05:19:48;;;;;;;5.05;4.18;;;;;;;;;;4991357;28;20701;-72
2023/04/03 05:22:14;;;;;;;6.05;4.50;;;;;;;;;;4990746;28;20156;-72
2023/04/03 05:24:40;;;;;;;6.60;4.20;;;;;;;;;;4991274;28;20499;-72
2023/04/03 05:27:07;;;;;;;9.07;6.40;;;;;;;;;;4985384;28;20516;-72
2023/04/03 05:29:36;;;;;;;11.23;5.90;;;;;;;;;;4986884;28;20042;-72
2023/04/03 05:32:03;;;;;;;7.15;5.00;;;;;;;;;;4992110;28;20050;-72
2023/04/03 05:34:29;;;;;;;6.40;4.60;;;;;;;;;;4976192;28;20046;-73
2023/04/03 05:36:55;;;;;;;4.65;3.97;;;;;;;;;;4987898;28;20043;-72
2023/04/03 05:39:22;;;;;;;3.85;3.45;;;;;;;;;;4991959;28;20523;-71
2023/04/03 05:41:47;;;;;;;5.47;4.22;;;;;;;;;;4988469;28;20051;-73
2023/04/03 05:44:13;;;;;;;4.22;3.83;;;;;;;;;;4979897;28;20061;-73
2023/04/03 05:46:41;;;;;;;6.50;3.40;;;;;;;;;;4990446;28;20703;-72
2023/04/03 05:49:08;;;;;;;4.32;3.88;;;;;;;;;;4977698;28;20046;-72
2023/04/03 05:51:40;;;;;;;7.18;4.50;;;;;;;;;;4988009;28;20047;-71
2023/04/03 05:54:23;;;;;;;6.10;4.50;;;;;;;;;;4975290;28;20452;-71
2023/04/03 05:56:51;;;;;;;5.88;4.10;;;;;;;;;;4989196;28;20053;-71
2023/04/03 05:59:18;;;;;;;7.10;4.07;;;;;;;;;;4989416;28;20043;-71
2023/04/03 06:01:44;;;;;;;4.22;3.83;;;;;;;;;;4991321;28;20937;-71
2023/04/03 06:04:10;;;;;;;4.20;3.65;;;;;;;;;;4985410;28;20109;-71
2023/04/03 06:07:03;;;;;;;4.20;3.53;;;;;;;;;;4964872;28;20042;-71
2023/04/03 06:09:29;;;;;;;4.00;3.63;;;;;;;;;;4973122;28;20054;-71
2023/04/03 06:11:55;;;;;;;4.88;3.80;;;;;;;;;;4989866;28;20042;-72
2023/04/03 06:14:22;;;;;;;6.32;4.30;;;;;;;;;;4987796;28;20069;-72
2023/04/03 06:16:48;;;;;;;5.03;4.05;;;;;;;;;;4968691;28;20142;-71
2023/04/03 06:19:13;;;;;;;4.18;3.78;;;;;;;;;;4971437;28;20051;-72
2023/04/03 06:21:44;;;;;;;6.78;4.38;;;;;;;;;;4984143;28;20054;-73
2023/04/03 06:24:13;;;;;;;3.53;3.20;;;;;;;;;;4970452;28;20055;-71
2023/04/03 06:26:38;;;;;;;5.18;3.78;;;;;;;;;;4972245;28;20292;-69
2023/04/03 06:29:04;;;;;;;6.65;4.35;;;;;;;;;;4977802;28;20554;-71
2023/04/03 06:31:29;;;;;;;8.18;4.30;;;;;;;;;;4967060;28;20053;-72
2023/04/03 06:33:56;;;;;;;4.57;3.75;;;;;;;;;;4971023;28;20708;-72
2023/04/03 06:36:21;;;;;;;4.80;3.53;;;;;;;;;;4973830;28;20039;-73
2023/04/03 06:38:48;;;;;;;7.20;4.22;;;;;;;;;;4973881;28;20046;-73
2023/04/03 06:41:13;;;;;;;4.20;3.80;;;;;;;;;;4976253;28;20056;-72
2023/04/03 06:43:39;;;;;;;7.13;3.85;;;;;;;;;;4978132;28;20051;-72
2023/04/03 06:46:05;;;;;;;4.18;3.13;;;;;;;;;;4974168;28;20702;-72
2023/04/03 06:48:30;;;;;;;5.20;3.25;;;;;;;;;;4976673;28;20069;-73
2023/04/03 06:50:56;;;;;;;4.53;3.45;;;;;;;;;;4975972;28;20050;-73
2023/04/03 06:53:21;;;;;;;4.75;3.67;;;;;;;;;;4975148;28;20039;-73
2023/04/03 06:55:47;;;;;;;4.38;3.20;;;;;;;;;;4981577;28;20050;-72
2023/04/03 06:58:14;;;;;;;3.33;3.03;;;;;;;;;;4965795;28;20058;-73
2023/04/03 07:00:40;;;;;;;6.68;4.47;;;;;;;;;;4969715;28;20093;-73
2023/04/03 07:03:06;;;;;;;4.35;3.47;;;;;;;;;;4968043;28;20047;-72
2023/04/03 07:05:31;;;;;;;5.53;4.07;;;;;;;;;;4967451;28;20039;-73
2023/04/03 07:07:57;;;;;;;5.38;3.53;;;;;;;;;;4971366;28;20054;-72
2023/04/03 07:10:23;;;;;;;7.03;4.07;;;;;;;;;;4974713;28;20110;-73
2023/04/03 07:12:48;;;;;;;5.18;3.72;;;;;;;;;;4972428;28;20146;-72
2023/04/03 07:15:14;;;;;;;4.85;4.32;;;;;;;;;;4971317;28;20372;-73
2023/04/03 07:17:40;;;;;;;6.18;3.85;;;;;;;;;;4973308;28;20142;-72
2023/04/03 07:20:06;;;;;;;2.25;1.98;;;;;;;;;;4971873;28;20046;-73
2023/04/03 07:22:31;;;;;;;6.93;3.60;;;;;;;;;;4977089;28;20042;-73
2023/04/03 07:24:58;;;;;;;2.38;2.17;;;;;;;;;;4973617;28;20051;-74
2023/04/03 07:27:25;;;;;;;6.50;3.85;;;;;;;;;;4962765;28;20054;-73
2023/04/03 07:29:50;;;;;;;4.50;3.50;;;;;;;;;;4976213;28;20054;-74
2023/04/03 07:32:16;;;;;;;6.65;5.07;;;;;;;;;;4974093;28;20053;-73
2023/04/03 07:34:41;;;;;;;5.38;3.78;;;;;;;;;;4973599;28;20047;-72
2023/04/03 07:37:08;;;;;;;5.63;3.42;;;;;;;;;;4976745;28;20080;-75
2023/04/03 07:39:34;;;;;;;4.25;3.55;;;;;;;;;;4985541;28;20041;-74
2023/04/03 07:42:00;;;;;;;4.13;3.75;;;;;;;;;;4967556;28;20671;-72
2023/04/03 07:44:26;;;;;;;4.40;3.85;;;;;;;;;;4973200;28;20345;-71
2023/04/03 07:46:51;;;;;;;5.28;3.72;;;;;;;;;;4975522;28;20050;-71
2023/04/03 07:49:22;;;;;;;5.90;3.72;;;;;;;;;;4974742;28;20061;-72
2023/04/03 07:51:48;;;;;;;4.45;3.63;;;;;;;;;;4969851;28;20180;-72
2023/04/03 07:54:14;;;;;;;6.00;3.67;;;;;;;;;;4975391;28;20042;-72
2023/04/03 07:56:41;;;;;;;7.38;3.58;;;;;;;;;;4972189;28;20047;-71
2023/04/03 07:59:06;;;;;;;5.15;3.33;;;;;;;;;;4976576;28;20066;-71
2023/04/03 08:01:33;;;;;;;4.45;3.38;;;;;;;;;;4977611;28;20039;-72
2023/04/03 08:03:59;;;;;;;7.38;4.10;;;;;;;;;;4972864;28;20047;-72
2023/04/03 08:06:25;;;;;;;4.45;3.53;;;;;;;;;;4973662;28;20054;-73
2023/04/03 08:08:50;;;;;;;3.72;3.17;;;;;;;;;;4973947;28;20072;-73
2023/04/03 08:11:15;;;;;;;5.68;3.55;;;;;;;;;;4989002;28;20736;-74
2023/04/03 08:13:41;;;;;;;5.28;3.67;;;;;;;;;;4984808;28;20050;-73
2023/04/03 08:16:09;;;;;;;4.00;3.55;;;;;;;;;;4987392;28;20137;-73
2023/04/03 08:18:35;;;;;;;5.15;3.58;;;;;;;;;;4969824;28;20097;-71
2023/04/03 08:21:00;;;;;;;3.47;3.17;;;;;;;;;;4971658;28;20630;-72
2023/04/03 08:23:26;;;;;;;3.55;2.97;;;;;;;;;;4970043;28;20047;-73
2023/04/03 08:25:51;;;;;;;7.35;3.47;;;;;;;;;;4973355;28;20044;-72
2023/04/03 08:28:17;;;;;;;6.38;3.85;;;;;;;;;;4975027;28;20512;-72
2023/04/03 08:30:42;;;;;;;5.60;3.70;;;;;;;;;;4968818;28;20043;-72
2023/04/03 08:33:09;;;;;;;4.90;4.10;;;;;;;;;;4969981;28;20436;-74
2023/04/03 08:35:39;;;;;;;4.97;3.22;;;;;;;;;;4973403;28;20046;-70
2023/04/03 08:38:04;;;;;;;7.55;4.15;;;;;;;;;;4973186;28;20057;-71
2023/04/03 08:40:30;;;;;;;3.55;3.20;;;;;;;;;;4973797;28;20050;-71
2023/04/03 08:43:20;;;;;;;7.03;3.63;;;;;;;;;;4975249;28;20053;-70
2023/04/03 08:45:50;;;;;;;5.25;3.35;;;;;;;;;;5001181;28;20053;-71
2023/04/03 08:48:21;;;;;;;3.58;3.22;;;;;;;;;;4976419;28;20039;-71
2023/04/03 08:50:53;;;;;;;5.60;3.97;;;;;;;;;;4976203;28;20288;-72
2023/04/03 08:53:22;;;;;;;4.68;4.20;;;;;;;;;;4971989;28;20045;-75
2023/04/03 08:55:51;;;;;;;4.05;3.55;;;;;;;;;;4990514;28;20599;-74
2023/04/03 08:58:22;;;;;;;6.90;4.60;;;;;;;;;;4989453;28;20051;-72
2023/04/03 09:01:00;;;;;;;10.82;3.70;;;;;;;;;;4977955;28;20158;-71
2023/04/03 09:03:33;;;;;;;4.30;3.33;;;;;;;;;;4974122;28;20496;-70
2023/04/03 09:06:06;;;;;;;5.88;3.72;;;;;;;;;;4976993;28;20032;-71
2023/04/03 09:09:02;;;;;;;5.50;3.67;;;;;;;;;;4970368;28;20057;-73
2023/04/03 09:11:44;;;;;;;6.00;3.47;;;;;;;;;;4974608;28;20042;-71
2023/04/03 09:14:43;;;;;;;5.75;3.45;;;;;;;;;;4970804;28;20066;-72
2023/04/03 09:17:21;;;;;;;6.28;4.00;;;;;;;;;;4975968;28;20050;-74
2023/04/03 09:19:55;;;;;;;4.45;3.42;;;;;;;;;;4976160;28;20081;-72
2023/04/03 09:22:25;;;;;;;4.30;3.70;;;;;;;;;;4975150;28;20051;-74
2023/04/03 09:25:18;;;;;;;5.47;4.07;;;;;;;;;;4975719;28;20104;-72
2023/04/03 09:27:44;;;;;;;5.05;2.95;;;;;;;;;;4955466;28;20051;-72
2023/04/03 09:30:15;;;;;;;3.60;3.30;;;;;;;;;;4977102;28;20049;-71
2023/04/03 09:32:40;;;;;;;3.33;2.72;;;;;;;;;;4974667;28;20055;-72
2023/04/03 09:35:09;;;;;;;4.38;3.58;;;;;;;;;;4976410;28;20057;-73
2023/04/03 09:37:41;;;;;;;5.18;3.63;;;;;;;;;;4968807;28;20133;-73
2023/04/03 09:40:32;;;;;;;3.42;2.42;;;;;;;;;;4965195;28;20468;-73
2023/04/03 09:43:00;;;;;;;6.80;3.70;;;;;;;;;;4974824;28;20075;-72
2023/04/03 09:45:32;;;;;;;6.72;3.50;;;;;;;;;;4973851;28;20487;-71
2023/04/03 09:48:24;;;;;;;;;;;;;;;;;;4967203;28;20104;-71
2023/04/03 09:50:59;;;;;;;7.13;3.33;;;;;;;;;;4973665;28;19929;-72
2023/04/03 09:53:40;;;;;;;7.15;2.75;;;;;;;;;;4976201;28;20061;-73
2023/04/03 09:56:20;;;;;;;3.75;3.20;;;;;;;;;;4976715;28;20046;-71
2023/04/03 09:58:48;;;;;;;4.75;3.38;;;;;;;;;;4977350;28;21305;-73
2023/04/03 10:01:41;;;;;;;4.10;3.40;;;;;;;;;;4969942;28;20077;-73
2023/04/03 10:04:21;;;;;;;7.05;3.90;;;;;;;;;;4972873;28;20105;-71
2023/04/03 10:06:56;;;;;;;3.42;2.97;;;;;;;;;;4974806;28;20137;-71
2023/04/03 10:09:27;;;;;;;3.92;3.50;;;;;;;;;;4987708;28;20462;-73
2023/04/03 10:12:06;;;;;;;3.05;2.75;;;;;;;;;;4989024;28;20133;-72
2023/04/03 10:14:35;;;;;;;3.22;2.92;;;;;;;;;;4974454;28;20158;-71
2023/04/03 10:17:32;;;;;;;4.10;3.10;;;;;;;;;;4976563;28;20411;-71
2023/04/03 10:20:19;;;;;;;3.25;2.80;;;;;;;;;;4989100;28;20046;-72
2023/04/03 10:23:22;;;;;;;4.90;3.30;;;;;;;;;;4974268;28;20043;-71
2023/04/03 10:26:00;;;;;;;3.92;3.53;;;;;;;;;;4986455;28;20063;-72
2023/04/03 10:29:06;;;;;;;3.95;3.50;;;;;;;;;;4972379;28;20101;-72
2023/04/03 10:31:41;;;;;;;5.10;3.95;;;;;;;;;;4975936;28;20113;-72
2023/04/03 10:34:22;;;;;;;7.72;3.63;;;;;;;;;;4970323;28;20046;-72
2023/04/03 10:37:09;;;;;;;7.70;4.97;;;;;;;;;;4974168;28;20058;-74
2023/04/03 10:39:34;;;;;;;7.80;4.90;;;;;;;;;;4970662;28;20050;-74
2023/04/03 10:42:03;;;;;;;7.65;4.35;;;;;;;;;;4971900;28;20412;-73
2023/04/03 10:44:53;;;;;;;5.90;5.15;;;;;;;;;;4974946;28;20050;-72
2023/04/03 10:47:33;;;;;;;8.60;4.78;;;;;;;;;;4972634;28;20050;-73
2023/04/03 10:50:10;;;;;;;4.90;4.38;;;;;;;;;;4970883;28;20773;-73
2023/04/03 10:52:50;;;;;;;9.30;5.82;;;;;;;;;;4974098;28;20569;-74
2023/04/03 10:55:42;;;;;;;5.57;4.88;;;;;;;;;;4971310;28;21351;-72
2023/04/03 10:58:10;;;;;;;;;;;;;;;;;;4966729;28;20534;-73
2023/04/03 11:00:41;;;;;;;5.68;5.07;;;;;;;;;;4973434;28;20836;-71
2023/04/03 11:03:13;;;;;;;5.70;5.00;;;;;;;;;;4975248;28;20057;-74
2023/04/03 11:05:47;;;;;;;5.38;4.45;;;;;;;;;;4993914;28;20500;-72
2023/04/03 11:08:44;;;;;;;7.60;4.60;;;;;;;;;;4973373;28;20049;-74
2023/04/03 11:11:15;;;;;;;5.22;4.60;;;;;;;;;;4962434;28;20054;-73
2023/04/03 11:14:21;;;;;;;6.68;4.88;;;;;;;;;;4971954;28;20070;-73
2023/04/03 11:16:53;;;;;;;4.72;4.22;;;;;;;;;;4980074;28;20058;-72
2023/04/03 11:19:25;;;;;;;;;;;;;;;;;;4975288;28;20149;-72
2023/04/03 11:22:27;;;;;;;6.30;5.03;;;;;;;;;;4977132;28;19926;-76
2023/04/03 11:25:11;;;;;;;10.07;7.70;;;;;;;;;;4967915;28;20597;-72
2023/04/03 11:27:58;;;;;;;6.43;4.82;;;;;;;;;;4976038;28;20086;-71
2023/04/03 11:30:27;;;;;;;6.53;3.90;;;;;;;;;;4986983;28;20408;-71
2023/04/03 11:33:08;;;;;;;4.80;3.78;;;;;;;;;;4974947;28;20062;-70
2023/04/03 11:35:34;;;;;;;5.55;3.15;;;;;;;;;;4972682;28;20043;-70
2023/04/03 11:38:05;;;;;;;3.95;3.33;;;;;;;;;;4971888;28;20053;-70
2023/04/03 11:40:37;;;;;;;6.65;4.63;;;;;;;;;;4972478;28;20042;-71
2023/04/03 11:43:17;;;;;;;8.80;4.68;;;;;;;;;;4973425;28;20063;-69
2023/04/03 11:45:49;;;;;;;3.40;2.92;;;;;;;;;;5003123;28;20062;-72
2023/04/03 11:48:18;;;;;;;4.28;3.75;;;;;;;;;;4987803;28;20113;-71
2023/04/03 11:50:47;;;;;;;7.35;6.10;;;;;;;;;;4972606;28;20051;-70
2023/04/03 11:53:13;;;;;;;12.40;8.75;;;;;;;;;;4972458;28;20062;-70
2023/04/03 11:55:47;;;;;;;6.45;5.10;;;;;;;;;;4973253;28;20234;-70
2023/04/03 11:58:18;;;;;;;8.25;5.85;;;;;;;;;;4975540;28;20058;-70
2023/04/03 12:00:43;;;;;;;6.55;4.95;;;;;;;;;;4970430;28;20050;-70
2023/04/03 12:03:27;;;;;;;6.15;4.20;;;;;;;;;;4973735;28;20053;-70
2023/04/03 12:06:14;;;;;;;4.78;3.58;;;;;;;;;;4987154;28;20054;-72
2023/04/03 12:08:43;;;;;;;4.78;3.95;;;;;;;;;;4988294;28;20440;-70
2023/04/03 12:11:08;;;;;;;6.28;3.28;;;;;;;;;;4973769;28;20058;-71
2023/04/03 12:13:57;;;;;;;5.10;2.88;;;;;;;;;;4968731;28;20058;-71
2023/04/03 12:16:37;;;;;;;4.68;2.20;;;;;;;;;;4973732;28;20058;-71
2023/04/03 12:19:14;;;;;;;3.30;1.98;;;;;;;;;;4974278;28;20059;-73
2023/04/03 12:21:48;;;;;;;4.30;2.60;;;;;;;;;;4972835;28;20927;-71
2023/04/03 12:24:17;;;;;;;4.75;3.13;;;;;;;;;;4975288;28;20054;-71
2023/04/03 12:26:50;;;;;;;4.63;2.85;;;;;;;;;;4976321;28;20097;-70
2023/04/03 12:29:32;;;;;;;4.82;2.80;;;;;;;;;;4974271;28;20054;-72
2023/04/03 12:32:07;;;;;;;4.27;2.93;;;;;;;;;;4988321;28;20137;-71
2023/04/03 12:35:00;;;;;;;5.55;3.05;;;;;;;;;;4975247;28;20826;-71
2023/04/03 12:37:53;;;;;;;4.32;2.92;;;;;;;;;;4975727;28;20581;-72
2023/04/03 12:40:26;;;;;;;4.03;2.53;;;;;;;;;;4977955;28;20057;-75
2023/04/03 12:43:10;;;;;;;3.20;2.65;;;;;;;;;;4975907;28;20426;-72
2023/04/03 12:46:11;;;;;;;4.63;2.13;;;;;;;;;;4968157;28;20110;-72
2023/04/03 12:48:50;;;;;;;3.23;2.30;;;;;;;;;;4973937;28;20062;-72
2023/04/03 12:51:38;;;;;;;4.15;3.25;;;;;;;;;;4972856;28;20050;-71
2023/04/03 12:54:15;;;;;;;4.32;2.13;;;;;;;;;;4975126;28;20042;-71
2023/04/03 12:56:40;;;;;;;4.00;2.15;;;;;;;;;;4970353;28;20062;-72
2023/04/03 12:59:26;;;;;;;2.25;2.05;;;;;;;;;;4970946;28;20043;-72
2023/04/03 13:02:00;;;;;;;3.72;1.70;;;;;;;;;;4983070;28;20073;-73
2023/04/03 13:04:31;;;;;;;2.10;1.90;;;;;;;;;;4965636;28;20500;-73
2023/04/03 13:06:57;;;;;;;3.08;2.40;;;;;;;;;;4971211;28;20061;-72
2023/04/03 13:09:29;;;;;;;4.63;2.47;;;;;;;;;;4969705;28;20752;-72
2023/04/03 13:12:01;;;;;;;1.80;1.70;;;;;;;;;;4987204;28;20145;-72
2023/04/03 13:14:28;;;;;;;2.42;2.15;;;;;;;;;;4975359;28;20042;-72
2023/04/03 13:17:00;;;;;;;2.38;1.65;;;;;;;;;;4957026;28;20054;-72
2023/04/03 13:19:27;;;;;;;6.80;4.00;;;;;;;;;;4954331;28;20101;-70
2023/04/03 13:22:02;;;;;;;2.05;1.88;;;;;;;;;;4969023;28;20053;-71
2023/04/03 13:24:29;;;;;;;2.35;1.70;;;;;;;;;;4971421;28;20074;-73
2023/04/03 13:26:56;;;;;;;2.03;1.60;;;;;;;;;;4977782;28;20052;-71
2023/04/03 13:29:31;;;;;;;2.15;1.70;;;;;;;;;;4980274;28;20053;-73
2023/04/03 13:31:57;;;;;;;2.30;1.88;;;;;;;;;;4974281;28;20053;-72
2023/04/03 13:34:26;;;;;;;1.85;1.65;;;;;;;;;;4975847;28;20511;-71
2023/04/03 13:36:53;;;;;;;2.05;1.67;;;;;;;;;;4971136;28;20047;-72
2023/04/03 13:39:18;;;;;;;3.28;1.85;;;;;;;;;;4978474;28;20149;-71
2023/04/03 13:41:55;;;;;;;5.88;1.90;;;;;;;;;;4972679;28;20046;-75
2023/04/03 13:44:21;;;;;;;5.95;1.63;;;;;;;;;;4977834;28;20050;-73
2023/04/03 13:46:50;;;;;;;1.75;1.60;;;;;;;;;;4972860;28;20050;-72
2023/04/03 13:49:39;;;;;;;2.80;1.80;;;;;;;;;;4972461;28;20047;-72
2023/04/03 13:52:32;;;;;;;2.80;1.90;;;;;;;;;;4975139;28;20568;-70
2023/04/03 13:55:15;;;;;;;1.83;1.70;;;;;;;;;;4975041;28;20487;-72
2023/04/03 13:58:09;;;;;;;3.67;1.42;;;;;;;;;;4973877;28;20046;-73
2023/04/03 14:00:39;;;;;;;1.42;1.33;;;;;;;;;;4971655;28;20113;-73
2023/04/03 14:03:28;;;;;;;1.50;1.40;;;;;;;;;;4968788;28;20117;-72
2023/04/03 14:05:54;;;;;;;2.38;2.17;;;;;;;;;;4987247;28;20285;-73
2023/04/03 14:08:20;;;;;;;7.65;3.78;;;;;;;;;;4971871;28;20082;-73
2023/04/03 14:10:47;;;;;;;2.05;1.40;;;;;;;;;;4981807;28;20053;-73
2023/04/03 14:13:17;;;;;;;3.30;2.50;;;;;;;;;;4982543;28;20188;-73
2023/04/03 14:15:44;;;;;;;3.60;2.00;;;;;;;;;;4980519;28;20050;-74
2023/04/03 14:18:12;;;;;;;2.15;1.60;;;;;;;;;;4970261;28;20082;-73
2023/04/03 14:20:37;;;;;;;2.97;1.60;;;;;;;;;;4979250;28;20518;-72
2023/04/03 14:23:03;;;;;;;5.63;2.40;;;;;;;;;;4985673;28;20050;-75
2023/04/03 14:25:29;;;;;;;4.03;2.20;;;;;;;;;;4972860;28;20047;-74
2023/04/03 14:27:55;;;;;;;2.55;1.50;;;;;;;;;;4974784;28;20042;-71
2023/04/03 14:30:29;;;;;;;5.45;1.98;;;;;;;;;;4971125;28;20053;-73
2023/04/03 14:32:55;;;;;;;5.20;2.20;;;;;;;;;;4971844;28;20068;-72
2023/04/03 14:35:21;;;;;;;12.18;2.97;;;;;;;;;;4969453;28;20522;-72
2023/04/03 14:37:48;;;;;;;1.58;1.40;;;;;;;;;;4975041;28;20138;-72
2023/04/03 14:40:25;;;;;;;3.28;1.60;;;;;;;;;;4972723;28;20082;-71
2023/04/03 14:42:54;;;;;;;2.60;1.30;;;;;;;;;;4971574;28;20496;-71
2023/04/03 14:45:21;;;;;;;1.77;1.55;;;;;;;;;;4973739;28;20046;-71
2023/04/03 14:47:51;;;;;;;2.60;1.52;;;;;;;;;;4969593;28;20069;-70
2023/04/03 14:50:25;;;;;;;4.40;2.63;;;;;;;;;;4973302;28;20559;-71
2023/04/03 14:52:54;;;;;;;3.47;2.30;;;;;;;;;;4973008;28;21058;-72
2023/04/03 14:55:21;;;;;;;8.40;2.30;;;;;;;;;;4974408;28;20979;-70
2023/04/03 14:57:47;;;;;;;3.03;2.40;;;;;;;;;;4974707;28;20140;-70
2023/04/03 15:00:21;;;;;;;3.28;2.08;;;;;;;;;;4972978;28;20046;-71
2023/04/03 15:02:47;;;;;;;1.98;1.80;;;;;;;;;;4972827;28;20563;-71